DW3068 Weather Reports


Display with metric or nautical units.
time (UTC)temp
F
wind
direction
speed
MPH
gust
MPH
rain 1hr
in
rain 24hr
in
rain mn
in
humidity
%
barometer
mb
20190123220553 38 309 3.0 7.0 0.00 0.00 0.00 93 996.0
20190123215554 38 312 4.0 8.0 0.00 0.00 0.00 93 996.0
20190123214554 38 310 2.0 3.0 0.00 0.00 0.00 92 996.0
20190123213553 38 42 2.0 3.0 0.00 0.00 0.00 92 997.0
20190123212554 38 95 3.0 5.0 0.00 0.00 0.00 92 997.0
20190123211554 38 88 3.0 5.0 0.00 0.00 0.00 92 997.0
20190123210553 38 130 2.0 3.0 0.00 0.00 0.00 92 997.0
20190123205554 38 202 2.0 2.0 0.00 0.00 0.00 91 997.0
20190123204554 38 225 2.0 2.0 0.00 0.00 0.00 91 997.0
20190123203554 38 225 2.0 3.0 0.00 0.00 0.00 91 997.0
20190123202554 38 338 0.0 2.0 0.00 0.00 0.00 91 997.0
20190123201554 38 315 0.0 2.0 0.00 0.00 0.00 91 997.0
20190123200554 38 315 1.0 3.0 0.00 0.00 0.00 90 997.0
20190123195554 38 315 2.0 3.0 0.00 0.00 0.00 90 997.9
20190123194555 38 338 3.0 5.0 0.00 0.00 0.00 90 998.0
20190123193554 38 318 3.0 5.0 0.00 0.00 0.00 89 998.0
20190123192553 38 315 2.0 3.0 0.00 0.00 0.00 89 998.0
20190123191554 39 315 2.0 3.0 0.00 0.00 0.00 89 998.0
20190123190554 39 315 3.0 3.0 0.00 0.00 0.00 89 999.0
20190123185554 39 292 2.0 3.0 0.00 0.00 0.00 88 999.0
20190123184553 39 269 3.0 3.0 0.00 0.00 0.00 88 999.0
20190123183555 39 248 2.0 3.0 0.00 0.00 0.00 87 999.0
20190123182554 39 248 3.0 3.0 0.00 0.00 0.00 87 999.0
20190123181557 39 248 2.0 2.0 0.00 0.00 0.00 86 999.0
20190123180555 39 225 2.0 2.0 0.00 0.00 0.00 86 999.0
20190123175554 40 248 2.0 2.0 0.00 0.00 0.00 86 999.0
20190123174554 40 248 2.0 2.0 0.00 0.00 0.00 85 999.0
20190123173555 40 199 2.0 7.0 0.00 0.00 0.00 85 999.0
20190123172555 40 162 3.0 8.0 0.00 0.00 0.00 85 999.0
20190123171554 40 119 5.0 13.0 0.00 0.00 0.00 84 999.0
20190123170553 40 91 6.0 12.0 0.00 0.00 0.00 84 999.0
20190123165554 40 99 7.0 9.0 0.00 0.00 0.00 83 999.0
20190123164554 41 82 4.0 10.0 0.00 0.00 0.00 81 999.0
20190123163554 41 102 6.0 9.0 0.00 0.00 0.00 79 1000.0
20190123162556 41 106 8.0 13.0 0.00 0.00 0.00 78 1000.0
20190123161556 42 82 7.0 14.0 0.00 0.00 0.00 77 1000.0
20190123160555 42 95 7.0 14.0 0.00 0.00 0.00 77 1000.0
20190123155555 42 76 8.0 14.0 0.00 0.00 0.00 76 1000.0
20190123154555 42 113 8.0 13.0 0.00 0.00 0.00 75 1000.0
20190123153554 42 92 5.0 9.0 0.00 0.00 0.00 75 1001.0
20190123152554 43 105 7.0 12.0 0.00 0.00 0.00 74 1001.0
20190123151555 43 105 9.0 14.0 0.00 0.00 0.00 73 1001.0
20190123150554 43 104 7.0 10.0 0.00 0.00 0.00 74 1001.0
20190123145556 43 33 2.0 5.0 0.00 0.00 0.00 75 1001.0
20190123144556 44 262 1.0 3.0 0.00 0.00 0.00 74 1001.0
20190123143555 44 225 2.0 3.0 0.00 0.00 0.00 74 1001.0
20190123142554 44 141 2.0 5.0 0.00 0.00 0.00 73 1001.0
20190123141555 44 190 3.0 9.0 0.00 0.00 0.00 73 1001.0
20190123140555 44 150 6.0 9.0 0.00 0.00 0.00 73 1000.0
20190123135555 44 115 6.0 10.0 0.00 0.00 0.00 73 1001.0
20190123134555 44 137 3.0 8.0 0.00 0.00 0.00 74 1001.0
20190123133555 44 189 5.0 9.0 0.00 0.00 0.00 74 1001.0
20190123132555 45 188 4.0 6.0 0.00 0.00 0.00 74 1001.0
20190123131555 44 220 2.0 6.0 0.00 0.00 0.00 75 1001.0
20190123130556 44 183 3.0 6.0 0.00 0.00 0.00 75 1001.0
20190123125555 44 192 5.0 8.0 0.00 0.00 0.00 75 1002.0
20190123124555 44 197 3.0 7.0 0.00 0.00 0.00 76 1002.0
20190123123555 44 168 3.0 9.0 0.00 0.00 0.00 76 1002.0
20190123122555 44 133 3.0 8.0 0.00 0.00 0.00 76 1003.0
20190123121556 44 204 5.0 8.0 0.00 0.00 0.00 75 1003.0
20190123120555 44 194 4.0 8.0 0.00 0.00 0.00 75 1003.0
20190123115555 44 166 5.0 7.0 0.00 0.00 0.00 75 1003.0
20190123114555 45 196 5.0 7.0 0.00 0.00 0.00 75 1003.0
20190123113556 45 195 5.0 7.0 0.00 0.00 0.00 75 1002.0
20190123112556 45 190 4.0 6.0 0.00 0.00 0.00 76 1003.0
20190123111555 44 94 3.0 5.0 0.00 0.00 0.00 76 1003.0
20190123110556 44 101 2.0 6.0 0.00 0.00 0.00 76 1003.0
20190123105556 43 160 5.0 8.0 0.00 0.00 0.00 76 1004.0
20190123104555 43 169 6.0 9.0 0.00 0.00 0.00 76 1004.0
20190123103556 44 200 5.0 7.0 0.00 0.00 0.00 76 1004.0
20190123102555 44 176 7.0 8.0 0.00 0.00 0.00 76 1004.0
20190123101557 44 178 5.0 9.0 0.00 0.00 0.00 76 1004.0
20190123100556 44 169 5.0 9.0 0.00 0.00 0.00 76 1005.0
20190123095556 43 119 7.0 10.0 0.00 0.00 0.00 76 1005.0
20190123094556 43 129 5.0 10.0 0.00 0.00 0.00 77 1005.0
20190123093555 43 128 3.0 8.0 0.00 0.00 0.00 77 1005.0
20190123092556 42 131 3.0 10.0 0.00 0.00 0.00 78 1004.0
20190123091556 42 123 8.0 12.0 0.00 0.00 0.00 78 1004.0
20190123090557 43 112 6.0 13.0 0.00 0.00 0.00 78 1005.0
20190123085555 43 127 7.0 13.0 0.00 0.00 0.00 79 1005.0
20190123084557 42 109 4.0 12.0 0.00 0.00 0.00 81 1005.0
20190123083556 42 114 7.0 12.0 0.00 0.00 0.00 82 1005.0
20190123082556 41 108 6.0 12.0 0.00 0.00 0.00 83 1005.0
20190123080556 40 105 5.0 8.0 0.00 0.00 0.00 85 1005.0
20190123075556 40 139 6.0 9.0 0.00 0.00 0.00 86 1005.0
20190123074556 38 155 4.0 10.0 0.00 0.00 0.00 87 1005.0
20190123073556 38 142 5.0 6.0 0.00 0.00 0.00 87 1005.0
20190123072556 38 175 4.0 7.0 0.00 0.00 0.00 88 1005.0
20190123071556 37 135 3.0 6.0 0.00 0.00 0.00 88 1005.0
20190123070556 37 117 3.0 6.0 0.00 0.00 0.00 88 1005.0
20190123065557 37 169 3.0 5.0 0.00 0.00 0.00 88 1005.0
20190123064557 37 89 3.0 6.0 0.00 0.00 0.00 88 1005.0
20190123063556 37 146 3.0 6.0 0.00 0.00 0.00 89 1005.0
20190123062557 37 122 4.0 10.0 0.00 0.00 0.00 89 1005.0
20190123061557 37 125 6.0 10.0 0.00 0.00 0.00 90 1005.0
20190123060557 36 127 7.0 9.0 0.00 0.00 0.00 91 1005.0
20190123055557 36 139 5.0 8.0 0.00 0.00 0.00 91 1005.0
20190123054557 36 198 3.0 7.0 0.00 0.00 0.00 91 1005.0
20190123053557 35 142 3.0 8.0 0.00 0.00 0.00 90 1005.0
20190123052557 35 101 5.0 9.0 0.00 0.00 0.00 90 1005.0
20190123051557 35 141 6.0 9.0 0.00 0.00 0.00 90 1005.0
20190123050557 35 133 5.0 6.0 0.00 0.00 0.00 90 1004.0
20190123045557 35 158 5.0 6.0 0.00 0.00 0.00 90 1005.0
20190123044557 35 123 3.0 6.0 0.00 0.00 0.00 90 1005.0
20190123043557 35 112 5.0 6.0 0.00 0.00 0.00 89 1004.0
20190123042557 35 145 3.0 5.0 0.00 0.00 0.00 89 1005.0
20190123041557 35 180 0.0 3.0 0.00 0.00 0.00 89 1005.0
20190123040557 36 171 2.0 3.0 0.00 0.00 0.00 89 1005.0
20190123035558 36 158 3.0 3.0 0.00 0.00 0.00 89 1005.0
20190123034557 36 225 2.0 5.0 0.00 0.00 0.00 89 1005.0
20190123033558 37 142 3.0 5.0 0.00 0.00 0.00 89 1005.0
20190123032557 37 128 4.0 6.0 0.00 0.00 0.00 89 1005.0
20190123031557 37 124 3.0 6.0 0.00 0.00 0.00 90 1005.0
20190123030557 37 154 3.0 8.0 0.00 0.00 0.00 90 1005.0
20190123025558 37 176 4.0 7.0 0.00 0.00 0.00 90 1005.0
20190123024558 36 166 5.0 8.0 0.00 0.00 0.00 90 1005.0
20190123023557 36 202 3.0 9.0 0.00 0.00 0.00 90 1005.0
20190123022558 36 202 4.0 7.0 0.00 0.00 0.00 90 1005.0
20190123021558 36 225 0.0 3.0 0.00 0.00 0.00 89 1005.0
20190123020559 36 84 2.0 6.0 0.00 0.00 0.00 89 1005.0
20190123015557 36 210 5.0 6.0 0.00 0.00 0.00 89 1006.0
20190123014557 36 208 4.0 6.0 0.00 0.00 0.00 88 1006.0
20190123013558 36 225 1.0 5.0 0.00 0.00 0.00 88 1005.0
20190123012557 37 202 1.0 3.0 0.00 0.00 0.00 89 1005.0
20190123011558 37 193 3.0 7.0 0.00 0.00 0.00 89 1005.0
20190123010558 37 140 5.0 8.0 0.00 0.00 0.00 89 1005.0
20190123005558 38 203 4.0 8.0 0.00 0.00 0.00 89 1006.0
20190123004558 38 154 6.0 10.0 0.00 0.00 0.00 90 1006.0
20190123003558 38 188 6.0 10.0 0.00 0.00 0.00 90 1005.0
20190123002558 37 116 6.0 12.0 0.00 0.00 0.00 91 1005.0
20190123001558 37 47 3.0 8.0 0.00 0.00 0.00 91 1005.0
20190123000559 37 157 5.0 13.0 0.00 0.00 0.00 92 1006.0
20190122235557 37 202 5.0 7.0 0.00 0.00 0.00 92 1006.0
20190122234558 37 186 5.0 7.0 0.00 0.00 0.00 92 1006.0
20190122233559 37 185 3.0 6.0 0.00 0.00 0.00 92 1005.0
20190122232559 37 159 3.0 10.0 0.00 0.00 0.00 92 1006.0
20190122231558 37 151 6.0 9.0 0.00 0.00 0.00 92 1006.0
20190122230740 37 126 3.0 8.0 0.00 0.00 0.00 92 1006.0
20190122225559 37 209 3.0 7.0 0.00 0.00 0.00 92 1006.0
20190122224559 37 170 3.0 9.0 0.00 0.00 0.00 91 1006.0
20190122223558 37 199 4.0 9.0 0.00 0.00 0.00 91 1007.0
20190122222559 37 175 2.0 6.0 0.00 0.00 0.00 91 1007.0
20190122221559 37 109 5.0 7.0 0.00 0.00 0.00 91 1007.0